Time;durP1;ratioP1;P1;durP2;ratioP2;P2;SDS_P1;SDS_P2;PMS_P1;PMS_P2;Temp;Humidity;BMP_temperature;BMP_pressure;BME280_temperature;BME280_humidity;BME280_pressure;Samples;Min_cycle;Max_cycle;Signal;HPM_P1;HPM_P2
2022/12/21 00:01:30;;;;;;;83.85;23.02;;;8.20;99.90;;;;;;5026235;28;20045;-87
2022/12/21 00:03:59;;;;;;;75.93;22.85;;;8.20;99.90;;;;;;5005324;28;20707;-87
2022/12/21 00:06:27;;;;;;;72.03;21.88;;;8.50;99.90;;;;;;4990795;28;20113;-87
2022/12/21 00:08:54;;;;;;;65.32;21.40;;;8.20;99.90;;;;;;4990898;28;20046;-86
2022/12/21 00:11:21;;;;;;;82.30;23.08;;;8.30;99.90;;;;;;5007165;28;20563;-86
2022/12/21 00:13:49;;;;;;;75.35;20.92;;;8.10;99.90;;;;;;5010592;28;20041;-87
2022/12/21 00:16:20;;;;;;;106.93;23.63;;;8.10;99.90;;;;;;5026240;28;20195;-88
2022/12/21 00:18:46;;;;;;;91.18;23.60;;;8.10;99.90;;;;;;5011084;28;20056;-86
2022/12/21 00:21:15;;;;;;;83.93;22.90;;;8.10;99.90;;;;;;5023289;28;20049;-86
2022/12/21 00:23:41;;;;;;;88.57;24.20;;;8.10;99.90;;;;;;5024482;28;20073;-87
2022/12/21 00:26:08;;;;;;;106.70;23.65;;;8.10;99.90;;;;;;5026400;28;20123;-86
2022/12/21 00:28:34;;;;;;;85.68;22.65;;;8.10;99.90;;;;;;5028860;28;20065;-87
2022/12/21 00:31:08;;;;;;;80.38;21.23;;;8.10;99.90;;;;;;5029957;28;20060;-87
2022/12/21 00:33:38;;;;;;;96.15;22.42;;;8.10;99.90;;;;;;5028886;28;20091;-86
2022/12/21 00:36:06;;;;;;;93.20;22.23;;;8.00;99.90;;;;;;5030892;28;20053;-87
2022/12/21 00:38:33;;;;;;;97.63;23.90;;;8.00;99.90;;;;;;5031138;28;20057;-87
2022/12/21 00:41:04;;;;;;;90.60;23.13;;;8.00;99.90;;;;;;5029634;28;20050;-87
2022/12/21 00:43:32;;;;;;;96.40;24.30;;;8.00;99.90;;;;;;5014343;28;20049;-87
2022/12/21 00:45:58;;;;;;;111.35;25.83;;;8.00;99.90;;;;;;5028948;28;20038;-87
2022/12/21 00:48:25;;;;;;;97.65;22.60;;;8.00;99.90;;;;;;5029958;28;20080;-88
2022/12/21 00:50:51;;;;;;;108.22;26.25;;;8.00;99.90;;;;;;5029649;28;20072;-87
2022/12/21 00:53:17;;;;;;;98.82;23.00;;;8.00;99.90;;;;;;5013743;28;20463;-87
2022/12/21 00:55:59;;;;;;;94.70;23.63;;;8.00;99.90;;;;;;5030375;28;20045;-87
2022/12/21 00:58:26;;;;;;;86.18;23.85;;;8.00;99.90;;;;;;5029769;28;20037;-87
2022/12/21 01:00:53;;;;;;;107.40;25.02;;;8.00;99.90;;;;;;5029350;28;20450;-87
2022/12/21 01:03:19;;;;;;;142.00;28.33;;;8.20;99.90;;;;;;5030160;28;20072;-87
2022/12/21 01:05:46;;;;;;;78.80;23.17;;;7.90;99.90;;;;;;5013521;28;20091;-86
2022/12/21 01:08:12;;;;;;;92.68;23.27;;;7.90;99.90;;;;;;5030218;28;20071;-86
2022/12/21 01:10:38;;;;;;;108.18;24.23;;;7.90;99.90;;;;;;5030150;28;20041;-86
2022/12/21 01:13:03;;;;;;;82.35;22.52;;;8.00;99.90;;;;;;5029216;28;20056;-87
2022/12/21 01:15:29;;;;;;;84.88;22.50;;;8.00;99.90;;;;;;5028530;28;20574;-87
2022/12/21 01:17:55;;;;;;;69.90;19.40;;;7.90;99.90;;;;;;5009659;28;20444;-87
2022/12/21 01:20:21;;;;;;;89.68;21.52;;;8.00;99.90;;;;;;5022902;28;20053;-87
2022/12/21 01:22:46;;;;;;;72.35;18.40;;;7.90;99.90;;;;;;5013289;28;20049;-88
2022/12/21 01:25:12;;;;;;;94.00;21.10;;;7.90;99.90;;;;;;5012819;28;20045;-87
2022/12/21 01:27:38;;;;;;;98.32;20.45;;;7.90;99.90;;;;;;5029055;28;20049;-87
2022/12/21 01:30:09;;;;;;;86.72;18.95;;;7.90;99.90;;;;;;5028735;28;20048;-87
2022/12/21 01:32:34;;;;;;;99.70;22.20;;;7.90;99.90;;;;;;5029198;28;20649;-86
2022/12/21 01:35:00;;;;;;;108.85;20.65;;;7.90;99.90;;;;;;5029098;28;20132;-87
2022/12/21 01:37:26;;;;;;;85.63;18.27;;;7.90;99.90;;;;;;5012632;28;20511;-87
2022/12/21 01:39:51;;;;;;;72.20;17.17;;;7.80;99.90;;;;;;5029512;28;20045;-88
2022/12/21 01:42:17;;;;;;;133.50;22.33;;;8.00;99.90;;;;;;5029000;28;20713;-87
2022/12/21 01:44:48;;;;;;;124.80;20.45;;;7.80;99.90;;;;;;5024589;28;20046;-88
2022/12/21 01:47:19;;;;;;;150.63;21.50;;;7.70;99.90;;;;;;5016272;28;20038;-86
2022/12/21 01:49:51;;;;;;;99.30;17.75;;;7.70;99.90;;;;;;5029114;28;20955;-86
2022/12/21 01:52:18;;;;;;;128.85;19.45;;;7.70;99.90;;;;;;5015822;28;20050;-87
2022/12/21 01:54:49;;;;;;;75.70;16.17;;;7.70;99.90;;;;;;5019267;28;20127;-87
2022/12/21 01:57:16;;;;;;;98.70;18.08;;;7.70;99.90;;;;;;5028251;28;20041;-87
2022/12/21 01:59:47;;;;;;;96.28;17.55;;;7.70;99.90;;;;;;5020022;28;20049;-87
2022/12/21 02:02:20;;;;;;;66.72;14.25;;;8.30;99.90;;;;;;5009044;28;20049;-86
2022/12/21 02:04:47;;;;;;;91.38;16.20;;;7.70;99.90;;;;;;5008761;28;20738;-86
2022/12/21 02:07:13;;;;;;;90.32;15.80;;;7.60;99.90;;;;;;5008806;28;20037;-87
2022/12/21 02:09:39;;;;;;;127.03;17.42;;;7.60;99.90;;;;;;4992780;28;20165;-86
2022/12/21 02:12:08;;;;;;;94.88;15.70;;;7.60;99.90;;;;;;5008847;28;20046;-87
2022/12/21 02:14:39;;;;;;;188.20;22.83;;;7.60;99.90;;;;;;4995893;28;20392;-87
2022/12/21 02:17:11;;;;;;;155.85;20.17;;;7.60;99.90;;;;;;5028387;28;20053;-87
2022/12/21 02:19:48;;;;;;;113.75;17.42;;;7.60;99.90;;;;;;5011572;28;20045;-87
2022/12/21 02:22:30;;;;;;;151.02;19.67;;;7.60;99.90;;;;;;5027832;28;20049;-87
2022/12/21 02:24:56;;;;;;;167.48;21.10;;;7.50;99.90;;;;;;5028661;28;20038;-87
2022/12/21 02:27:37;;;;;;;151.50;17.90;;;7.50;99.90;;;;;;5028079;28;20191;-87
2022/12/21 02:30:29;;;;;;;237.77;24.77;;;7.50;99.90;;;;;;5013650;28;20065;-87
2022/12/21 02:33:32;;;;;;;240.25;24.10;;;7.50;99.90;;;;;;5014131;28;20083;-88
2022/12/21 02:36:03;;;;;;;195.82;21.15;;;7.50;99.90;;;;;;5011274;28;20037;-87
2022/12/21 02:39:09;;;;;;;248.00;23.60;;;7.50;99.90;;;;;;4996149;28;20555;-88
2022/12/21 02:41:55;;;;;;;228.20;22.75;;;7.40;99.90;;;;;;5007236;28;20100;-86
2022/12/21 02:44:42;;;;;;;236.63;23.80;;;7.40;99.90;;;;;;5008834;28;20088;-87
2022/12/21 02:47:25;;;;;;;272.15;27.25;;;7.40;99.90;;;;;;5021684;28;20220;-88
2022/12/21 02:49:54;;;;;;;163.43;21.02;;;7.40;99.90;;;;;;5027371;28;20050;-88
2022/12/21 02:52:28;;;;;;;351.25;28.25;;;7.40;99.90;;;;;;5028246;28;20575;-87
2022/12/21 02:54:58;;;;;;;157.90;19.90;;;7.40;99.90;;;;;;5028632;28;20088;-87
2022/12/21 02:57:36;;;;;;;289.85;26.08;;;7.40;99.90;;;;;;5028441;28;20136;-87
2022/12/21 03:00:11;;;;;;;275.40;27.65;;;7.40;99.90;;;;;;5027897;28;20073;-88
2022/12/21 03:05:54;;;;;;;126.63;19.70;;;7.30;99.90;;;;;;5027052;28;20081;-87
2022/12/21 03:08:44;;;;;;;204.65;24.55;;;7.30;99.90;;;;;;5027668;28;20041;-86
2022/12/21 03:11:10;;;;;;;199.80;23.73;;;7.30;99.90;;;;;;5027108;28;20568;-87
2022/12/21 03:14:09;;;;;;;142.30;19.95;;;7.30;99.90;;;;;;5002776;28;20049;-88
2022/12/21 03:16:46;;;;;;;263.73;26.13;;;7.20;99.90;;;;;;5007464;28;20091;-87
2022/12/21 03:19:32;;;;;;;164.95;21.30;;;7.20;99.90;;;;;;5008893;28;20077;-88
2022/12/21 03:22:45;;;;;;;273.55;27.00;;;7.20;99.90;;;;;;5028380;28;20393;-88
2022/12/21 03:25:27;;;;;;;353.80;34.45;;;7.20;99.90;;;;;;4990854;28;20054;-87
2022/12/21 03:27:55;;;;;;;332.52;29.33;;;7.20;99.90;;;;;;4991662;28;20133;-87
2022/12/21 03:30:22;;;;;;;255.20;28.90;;;7.20;99.90;;;;;;5022640;28;20046;-87
2022/12/21 03:32:59;;;;;;;250.85;28.05;;;7.20;99.90;;;;;;5008091;28;20052;-87
2022/12/21 03:35:49;;;;;;;267.92;29.52;;;7.20;99.90;;;;;;5012267;28;20151;-87
2022/12/21 03:38:24;;;;;;;257.83;27.73;;;7.20;99.90;;;;;;5026646;28;20054;-87
2022/12/21 03:40:53;;;;;;;200.20;23.27;;;7.20;99.90;;;;;;5027245;28;20474;-86
2022/12/21 03:43:28;;;;;;;249.38;28.48;;;7.20;99.90;;;;;;5027372;28;20491;-87
2022/12/21 03:46:04;;;;;;;283.55;28.98;;;7.20;99.90;;;;;;5008415;28;20054;-86
2022/12/21 03:48:53;;;;;;;245.10;28.17;;;7.10;99.90;;;;;;5024210;28;20050;-87
2022/12/21 03:51:34;;;;;;;224.93;25.58;;;7.10;99.90;;;;;;5032604;28;20052;-87
2022/12/21 03:54:31;;;;;;;261.48;27.65;;;7.20;99.90;;;;;;5027586;28;20057;-87
2022/12/21 03:56:58;;;;;;;258.38;28.33;;;7.10;99.90;;;;;;5027304;28;20038;-87
2022/12/21 03:59:24;;;;;;;294.83;28.13;;;7.10;99.90;;;;;;5026848;28;20054;-87
2022/12/21 04:02:24;;;;;;;221.05;26.80;;;7.10;99.90;;;;;;5029063;28;20049;-87
2022/12/21 04:05:22;;;;;;;319.48;29.52;;;7.10;99.90;;;;;;5032289;28;20666;-87
2022/12/21 04:07:49;;;;;;;334.77;31.60;;;7.10;99.90;;;;;;5010522;28;20065;-87
2022/12/21 04:10:17;;;;;;;326.63;29.13;;;7.10;99.90;;;;;;5011173;28;20519;-87
2022/12/21 04:12:46;;;;;;;278.85;29.58;;;7.10;99.90;;;;;;5032492;28;20123;-87
2022/12/21 04:15:17;;;;;;;338.77;32.65;;;7.70;99.90;;;;;;5000464;28;20057;-88
2022/12/21 04:17:45;;;;;;;323.88;31.63;;;7.10;99.90;;;;;;5031286;28;20041;-88
2022/12/21 04:20:17;;;;;;;264.38;30.63;;;7.10;99.90;;;;;;5014656;28;20211;-87
2022/12/21 04:28:19;;;;;;;306.88;31.75;;;7.60;99.90;;;;;;5030108;28;20053;-86
2022/12/21 04:30:45;;;;;;;245.63;31.45;;;7.10;99.90;;;;;;5020184;28;20156;-87
2022/12/21 04:33:14;;;;;;;252.20;30.17;;;7.10;99.90;;;;;;5011020;28;20133;-86
2022/12/21 04:38:29;;;;;;;343.23;37.80;;;7.10;99.90;;;;;;5026485;28;20057;-87
2022/12/21 04:40:56;;;;;;;348.05;37.03;;;7.10;99.90;;;;;;5030551;28;20430;-87
2022/12/21 04:43:22;;;;;;;277.30;33.65;;;7.10;99.90;;;;;;5021964;28;20080;-87
2022/12/21 04:45:48;;;;;;;315.77;40.97;;;7.10;99.90;;;;;;5022549;28;20099;-86
2022/12/21 04:48:15;;;;;;;200.02;28.77;;;7.10;99.90;;;;;;5030976;28;20081;-87
2022/12/21 04:50:42;;;;;;;316.00;38.35;;;7.20;99.90;;;;;;5029904;28;20140;-87
2022/12/21 04:53:08;;;;;;;257.60;31.85;;;7.30;99.90;;;;;;5030722;28;20684;-87
2022/12/21 04:55:34;;;;;;;287.50;33.63;;;7.10;99.90;;;;;;5030011;28;20060;-87
2022/12/21 04:58:02;;;;;;;300.40;33.72;;;7.20;99.90;;;;;;5029468;28;20132;-87
2022/12/21 05:00:28;;;;;;;260.25;33.00;;;7.20;99.90;;;;;;5018980;28;20080;-87
2022/12/21 05:02:53;;;;;;;380.67;44.42;;;7.10;99.90;;;;;;5010971;28;20082;-87
2022/12/21 05:05:19;;;;;;;377.40;41.78;;;7.20;99.90;;;;;;5010417;28;20042;-87
2022/12/21 05:07:47;;;;;;;372.92;39.83;;;7.10;99.90;;;;;;5010165;28;20046;-86
2022/12/21 05:10:12;;;;;;;355.88;38.63;;;7.10;99.90;;;;;;5025281;28;20587;-87
2022/12/21 05:12:38;;;;;;;208.05;27.20;;;8.10;99.90;;;;;;5029338;28;20432;-86
2022/12/21 05:15:04;;;;;;;365.55;38.55;;;7.10;99.90;;;;;;5029083;28;20056;-87
2022/12/21 05:17:30;;;;;;;333.73;36.05;;;7.10;99.90;;;;;;5028756;28;20045;-87
2022/12/21 05:19:55;;;;;;;439.88;44.85;;;7.10;99.90;;;;;;5029023;28;20046;-87
2022/12/21 05:22:22;;;;;;;378.60;39.25;;;7.10;99.90;;;;;;5029315;28;20052;-87
2022/12/21 05:24:48;;;;;;;301.83;33.03;;;7.10;99.90;;;;;;5014736;28;20061;-87
2022/12/21 05:27:13;;;;;;;423.08;42.08;;;7.10;99.90;;;;;;4993614;28;20054;-86
2022/12/21 05:29:39;;;;;;;402.58;42.22;;;7.10;99.90;;;;;;5009600;28;20046;-87
2022/12/21 05:32:05;;;;;;;396.63;37.28;;;7.20;99.90;;;;;;5009807;28;20220;-84
2022/12/21 05:34:31;;;;;;;328.77;38.75;;;7.10;99.90;;;;;;5009697;28;20046;-87
2022/12/21 05:36:57;;;;;;;405.83;41.40;;;7.10;99.90;;;;;;5026328;28;20053;-87
2022/12/21 05:39:22;;;;;;;369.98;38.97;;;7.20;99.90;;;;;;5028760;28;20050;-87
2022/12/21 05:41:51;;;;;;;421.42;44.28;;;7.10;99.90;;;;;;5029082;28;20049;-87
2022/12/21 05:44:16;;;;;;;295.83;34.70;;;7.20;99.90;;;;;;5029700;28;20383;-87
2022/12/21 05:46:42;;;;;;;299.75;35.50;;;7.20;99.90;;;;;;5028928;28;20046;-87
2022/12/21 05:49:07;;;;;;;355.55;41.03;;;7.20;99.90;;;;;;5029744;28;20572;-86
2022/12/21 05:51:34;;;;;;;203.45;30.40;;;7.70;99.90;;;;;;5029974;28;20045;-86
2022/12/21 05:54:01;;;;;;;338.48;40.03;;;7.20;99.90;;;;;;5020115;28;20046;-87
2022/12/21 05:56:26;;;;;;;244.63;35.70;;;7.20;99.90;;;;;;5028861;28;20403;-86
2022/12/21 05:58:52;;;;;;;325.85;39.05;;;7.20;99.90;;;;;;5012444;28;20045;-86
2022/12/21 06:01:18;;;;;;;153.48;30.15;;;7.20;99.90;;;;;;5028290;28;20407;-86
2022/12/21 06:03:43;;;;;;;315.65;37.10;;;7.20;99.90;;;;;;5028953;28;20041;-87
2022/12/21 06:06:12;;;;;;;186.10;32.50;;;7.30;99.90;;;;;;5028701;28;20474;-86
2022/12/21 06:08:38;;;;;;;171.98;30.60;;;7.20;99.90;;;;;;5007611;28;20082;-86
2022/12/21 06:11:08;;;;;;;145.65;27.33;;;7.20;99.90;;;;;;5008682;28;20049;-86
2022/12/21 06:13:34;;;;;;;249.23;35.88;;;7.30;99.90;;;;;;5025912;28;20050;-86
2022/12/21 06:16:06;;;;;;;192.90;34.58;;;7.20;99.90;;;;;;5029375;28;20053;-86
2022/12/21 06:18:32;;;;;;;212.85;37.97;;;7.30;99.90;;;;;;5028454;28;20049;-87
2022/12/21 06:20:57;;;;;;;278.48;38.47;;;7.30;99.90;;;;;;5028464;28;20055;-87
2022/12/21 06:23:24;;;;;;;230.13;35.25;;;7.30;99.90;;;;;;5002960;28;20041;-87
2022/12/21 06:25:55;;;;;;;202.82;31.88;;;7.30;99.90;;;;;;5008899;28;20050;-86
2022/12/21 06:28:20;;;;;;;182.27;29.58;;;7.50;99.90;;;;;;5005690;28;20069;-88
2022/12/21 06:30:46;;;;;;;176.38;30.45;;;7.30;99.90;;;;;;5011941;28;20057;-87
2022/12/21 06:33:12;;;;;;;157.57;27.10;;;7.30;99.90;;;;;;5013057;28;20048;-87
2022/12/21 06:35:37;;;;;;;255.32;36.95;;;7.20;99.90;;;;;;5026239;28;20504;-86
2022/12/21 06:38:03;;;;;;;181.98;30.00;;;7.20;99.90;;;;;;5028240;28;20539;-87
2022/12/21 06:40:28;;;;;;;174.45;28.67;;;7.30;99.90;;;;;;5027059;28;20049;-86
2022/12/21 06:43:04;;;;;;;156.38;27.60;;;7.20;99.90;;;;;;5031749;28;20045;-89
2022/12/21 06:45:31;;;;;;;236.80;32.67;;;7.60;99.90;;;;;;5016239;28;20077;-90
2022/12/21 06:47:56;;;;;;;205.18;30.60;;;7.20;99.90;;;;;;5001393;28;20045;-90
2022/12/21 06:50:22;;;;;;;162.43;27.98;;;7.20;99.90;;;;;;5012820;28;20053;-89
2022/12/21 06:52:52;;;;;;;170.38;28.75;;;7.20;99.90;;;;;;5013152;28;20045;-89
2022/12/21 06:55:19;;;;;;;204.48;28.23;;;7.20;99.90;;;;;;5013704;28;20442;-89
2022/12/21 06:57:44;;;;;;;243.13;34.03;;;7.20;99.90;;;;;;4999313;28;20115;-89
2022/12/21 07:00:10;;;;;;;197.38;28.33;;;7.20;99.90;;;;;;5014930;28;20065;-89
2022/12/21 07:02:39;;;;;;;245.38;32.72;;;7.20;99.90;;;;;;5015687;28;20446;-89
2022/12/21 07:05:05;;;;;;;224.30;32.50;;;7.20;99.90;;;;;;5032581;28;20096;-90
2022/12/21 07:07:32;;;;;;;265.30;35.47;;;7.20;99.90;;;;;;5014470;28;20377;-90
2022/12/21 07:10:01;;;;;;;247.18;34.28;;;7.20;99.90;;;;;;5016726;28;20041;-89
2022/12/21 07:12:26;;;;;;;208.27;32.88;;;7.20;99.90;;;;;;5030799;28;20976;-90
2022/12/21 07:14:57;;;;;;;275.08;42.17;;;7.20;99.90;;;;;;4996627;28;20128;-90
2022/12/21 07:17:27;;;;;;;193.70;33.25;;;7.20;99.90;;;;;;4986528;28;20062;-90
2022/12/21 07:19:52;;;;;;;156.90;27.40;;;7.20;99.90;;;;;;5028317;28;20073;-90
2022/12/21 07:22:19;;;;;;;209.70;32.20;;;7.20;99.90;;;;;;4994261;28;20110;-87
2022/12/21 07:24:46;;;;;;;191.05;30.15;;;7.20;99.90;;;;;;5011499;28;20561;-87
2022/12/21 07:27:11;;;;;;;257.48;33.90;;;7.20;99.90;;;;;;5008014;28;20068;-88
2022/12/21 07:29:38;;;;;;;187.93;31.90;;;7.20;99.90;;;;;;5009444;28;20065;-89
2022/12/21 07:32:14;;;;;;;153.57;29.42;;;7.20;99.90;;;;;;5009550;28;20054;-90
2022/12/21 07:34:39;;;;;;;182.55;31.92;;;7.20;99.90;;;;;;5028610;28;20080;-88
2022/12/21 07:37:05;;;;;;;228.48;35.13;;;7.20;99.90;;;;;;5001583;28;20093;-88
2022/12/21 07:39:31;;;;;;;227.77;33.63;;;7.20;99.90;;;;;;4983835;28;20052;-88
2022/12/21 07:41:57;;;;;;;309.90;39.22;;;7.20;99.90;;;;;;5008874;28;20045;-88
2022/12/21 07:44:24;;;;;;;261.13;35.78;;;7.20;99.90;;;;;;5010194;28;20049;-88
2022/12/21 07:46:51;;;;;;;180.50;34.60;;;7.20;99.90;;;;;;4989530;28;20437;-88
2022/12/21 07:49:17;;;;;;;130.07;30.45;;;7.30;99.90;;;;;;4984303;28;20049;-87
2022/12/21 07:51:45;;;;;;;195.32;35.50;;;7.20;99.90;;;;;;4992565;28;20091;-88
2022/12/21 07:54:10;;;;;;;202.50;35.70;;;7.20;99.90;;;;;;4992654;28;20056;-88
2022/12/21 07:56:36;;;;;;;175.20;33.75;;;7.20;99.90;;;;;;5009287;28;20042;-90
2022/12/21 07:59:05;;;;;;;154.85;31.65;;;7.20;99.90;;;;;;4976058;28;20038;-90
2022/12/21 08:01:30;;;;;;;154.07;33.28;;;7.20;99.90;;;;;;5010727;28;20048;-88
2022/12/21 08:03:57;;;;;;;143.70;31.23;;;7.20;99.90;;;;;;5010623;28;20407;-89
2022/12/21 08:06:23;;;;;;;164.48;32.33;;;7.20;99.90;;;;;;4994976;28;20091;-87
2022/12/21 08:08:48;;;;;;;153.50;33.13;;;7.20;99.90;;;;;;4994173;28;20407;-90
2022/12/21 08:11:17;;;;;;;151.48;32.00;;;7.20;99.90;;;;;;4991339;28;20050;-89
2022/12/21 08:13:45;;;;;;;138.40;30.65;;;7.20;99.90;;;;;;4990239;28;20046;-87
2022/12/21 08:16:13;;;;;;;158.70;33.58;;;7.20;99.90;;;;;;4991964;28;20499;-88
2022/12/21 08:18:39;;;;;;;169.98;33.88;;;7.20;99.90;;;;;;4984150;28;20507;-88
2022/12/21 08:21:07;;;;;;;133.32;30.75;;;7.20;99.90;;;;;;4994349;28;20042;-91
2022/12/21 08:24:08;;;;;;;118.47;30.10;;;7.20;99.90;;;;;;5013039;28;20377;-91
2022/12/21 08:26:34;;;;;;;125.70;30.60;;;7.20;99.90;;;;;;4996305;28;20054;-91
2022/12/21 08:29:05;;;;;;;162.30;33.47;;;7.20;99.90;;;;;;4996100;28;20404;-91
2022/12/21 08:31:32;;;;;;;146.45;33.17;;;7.20;99.90;;;;;;4995605;28;20042;-85
2022/12/21 08:33:58;;;;;;;128.88;31.63;;;7.20;99.90;;;;;;5004199;28;20126;-87
2022/12/21 08:36:24;;;;;;;143.93;33.67;;;7.20;99.90;;;;;;5004197;28;20050;-87
2022/12/21 08:38:51;;;;;;;128.45;30.75;;;7.20;99.90;;;;;;5018621;28;20050;-89
2022/12/21 08:41:17;;;;;;;123.75;31.10;;;7.30;99.90;;;;;;4990265;28;20054;-89
2022/12/21 08:43:43;;;;;;;143.32;33.03;;;7.30;99.90;;;;;;4989869;28;20089;-89
2022/12/21 08:46:15;;;;;;;167.10;36.30;;;7.30;99.90;;;;;;4990329;28;20082;-88
2022/12/21 08:48:42;;;;;;;;;;;8.00;99.90;;;;;;4974673;28;20125;-87
2022/12/21 08:51:08;;;;;;;151.10;33.38;;;7.20;99.90;;;;;;4992985;28;20048;-88
2022/12/21 08:53:35;;;;;;;147.55;34.45;;;7.20;99.90;;;;;;4976705;28;20043;-88
2022/12/21 08:56:02;;;;;;;181.73;37.35;;;7.30;99.90;;;;;;4992654;28;20050;-88
2022/12/21 08:58:31;;;;;;;178.40;36.83;;;7.20;99.90;;;;;;4993259;28;20042;-89
2022/12/21 09:00:57;;;;;;;171.05;35.10;;;7.30;99.90;;;;;;4976181;28;20062;-88
2022/12/21 09:03:23;;;;;;;185.95;39.22;;;7.30;99.90;;;;;;4976951;28;20069;-88
2022/12/21 09:05:59;;;;;;;184.40;40.35;;;7.30;99.90;;;;;;4985565;28;20046;-89
2022/12/21 09:08:25;;;;;;;167.50;36.22;;;7.30;99.90;;;;;;4995941;28;20041;-89
2022/12/21 09:11:09;;;;;;;166.85;35.80;;;7.30;99.90;;;;;;4997723;28;20050;-88
2022/12/21 09:13:36;;;;;;;162.93;32.75;;;7.30;99.90;;;;;;4996777;28;20038;-88
2022/12/21 09:16:02;;;;;;;141.60;31.58;;;7.30;99.90;;;;;;4989041;28;20677;-88
2022/12/21 09:18:28;;;;;;;110.18;28.65;;;7.40;99.90;;;;;;4976871;28;20077;-88
2022/12/21 09:20:54;;;;;;;104.20;27.55;;;7.40;99.90;;;;;;4976818;28;20042;-89
2022/12/21 09:23:20;;;;;;;110.10;28.45;;;7.40;99.90;;;;;;4976381;28;20550;-89
2022/12/21 09:25:46;;;;;;;129.18;29.85;;;7.40;99.90;;;;;;4976631;28;20129;-89
2022/12/21 09:28:12;;;;;;;127.78;29.70;;;7.40;99.90;;;;;;4976585;28;20202;-87
2022/12/21 09:30:39;;;;;;;116.55;29.05;;;7.40;99.90;;;;;;4975630;28;20054;-89
2022/12/21 09:33:08;;;;;;;131.88;30.33;;;7.40;99.90;;;;;;4990853;28;20125;-89
2022/12/21 09:35:37;;;;;;;121.57;29.70;;;7.40;99.90;;;;;;4991544;28;20057;-86
2022/12/21 09:38:03;;;;;;;112.57;28.58;;;7.40;99.90;;;;;;4991561;28;20050;-87
2022/12/21 09:40:31;;;;;;;108.07;27.70;;;7.40;99.90;;;;;;4992445;28;20042;-88
2022/12/21 09:43:48;;;;;;;101.40;29.15;;;7.40;99.90;;;;;;4992013;28;20128;-88
2022/12/21 09:46:15;;;;;;;100.22;27.73;;;7.40;99.90;;;;;;5019016;28;20085;-88
2022/12/21 09:48:55;;;;;;;92.03;27.48;;;7.40;99.90;;;;;;4999324;28;20117;-88
2022/12/21 09:51:30;;;;;;;94.18;27.58;;;7.50;99.90;;;;;;4988530;28;20092;-88
2022/12/21 09:54:15;;;;;;;97.47;27.35;;;7.40;99.90;;;;;;4995272;28;20092;-89
2022/12/21 09:56:45;;;;;;;91.50;26.23;;;7.40;99.90;;;;;;5011018;28;20137;-88
2022/12/21 09:59:14;;;;;;;90.28;25.15;;;7.40;99.90;;;;;;5010843;28;20048;-88
2022/12/21 10:01:53;;;;;;;94.05;26.48;;;7.40;99.90;;;;;;4995165;28;20050;-87
2022/12/21 10:04:30;;;;;;;86.60;27.10;;;7.40;99.90;;;;;;5011283;28;20046;-86
2022/12/21 10:07:22;;;;;;;86.90;25.83;;;7.40;99.90;;;;;;4980134;28;20050;-88
2022/12/21 10:10:21;;;;;;;77.03;24.33;;;7.40;99.90;;;;;;4991525;28;20046;-88
2022/12/21 10:12:51;;;;;;;77.38;24.30;;;7.50;99.90;;;;;;5007776;28;20046;-89
2022/12/21 10:15:48;;;;;;;95.25;25.65;;;7.60;99.90;;;;;;4991420;28;20472;-88
2022/12/21 10:19:03;;;;;;;80.60;24.88;;;7.60;99.90;;;;;;4991557;28;20085;-88
2022/12/21 10:22:02;;;;;;;79.10;23.95;;;7.60;99.90;;;;;;4990825;28;20054;-87
2022/12/21 10:24:51;;;;;;;81.22;25.60;;;7.60;99.90;;;;;;4996569;28;20084;-87
2022/12/21 10:27:33;;;;;;;76.03;24.58;;;7.60;99.90;;;;;;4994086;28;20045;-86
2022/12/21 10:29:59;;;;;;;;;;;7.60;99.90;;;;;;4994693;28;20052;-88
2022/12/21 10:32:32;;;;;;;77.88;24.00;;;7.60;99.90;;;;;;4994068;28;19921;-88
2022/12/21 10:35:21;;;;;;;77.30;24.98;;;7.70;99.90;;;;;;5010146;28;20409;-88
2022/12/21 10:37:55;;;;;;;78.68;24.52;;;7.70;99.90;;;;;;5009857;28;20057;-89
2022/12/21 10:40:25;;;;;;;73.95;23.65;;;7.80;99.90;;;;;;4997971;28;20041;-88
2022/12/21 10:42:53;;;;;;;77.10;24.85;;;7.80;99.90;;;;;;4991255;28;20097;-89
2022/12/21 10:45:21;;;;;;;87.45;28.63;;;7.90;99.90;;;;;;4991532;28;20050;-87
2022/12/21 10:47:47;;;;;;;82.82;26.63;;;8.00;99.90;;;;;;4974698;28;20046;-87
2022/12/21 10:50:26;;;;;;;82.60;26.48;;;8.00;99.90;;;;;;4975190;28;20046;-89
2022/12/21 10:52:54;;;;;;;84.07;30.45;;;8.00;99.90;;;;;;4990263;28;20834;-88
2022/12/21 10:55:24;;;;;;;75.00;24.50;;;7.90;99.90;;;;;;4990273;28;20088;-88
2022/12/21 10:58:13;;;;;;;69.40;24.23;;;7.90;99.90;;;;;;5008901;28;20073;-88
2022/12/21 11:00:40;;;;;;;80.22;24.23;;;7.90;99.90;;;;;;5009612;28;20045;-89
2022/12/21 11:03:26;;;;;;;68.68;23.15;;;7.90;99.90;;;;;;5010330;28;20049;-87
2022/12/21 11:05:51;;;;;;;70.38;23.73;;;7.90;99.90;;;;;;5008193;28;20160;-86
2022/12/21 11:08:42;;;;;;;64.90;22.85;;;8.00;99.90;;;;;;5006890;28;20120;-88
2022/12/21 11:11:26;;;;;;;70.57;24.60;;;8.10;99.90;;;;;;5016157;28;20101;-87
2022/12/21 11:14:14;;;;;;;72.47;25.20;;;8.10;99.90;;;;;;5019779;28;20069;-90
2022/12/21 11:16:40;;;;;;;65.28;23.15;;;8.10;99.90;;;;;;5008581;28;20057;-89
2022/12/21 11:19:12;;;;;;;68.85;24.55;;;8.10;99.90;;;;;;5010233;28;20076;-88
2022/12/21 11:21:47;;;;;;;69.15;25.85;;;8.10;99.90;;;;;;4987817;28;20137;-88
2022/12/21 11:24:23;;;;;;;68.38;23.38;;;8.10;99.90;;;;;;5010534;28;20046;-88
2022/12/21 11:27:14;;;;;;;60.90;22.45;;;8.10;99.90;;;;;;5008641;28;20045;-88
2022/12/21 11:29:47;;;;;;;58.20;23.27;;;8.10;99.90;;;;;;5003483;28;20054;-88
2022/12/21 11:32:17;;;;;;;59.47;23.00;;;8.10;99.90;;;;;;5010325;28;20129;-89
2022/12/21 11:34:51;;;;;;;62.97;22.27;;;8.10;99.90;;;;;;5010575;28;20128;-89
2022/12/21 11:37:36;;;;;;;57.75;23.20;;;8.10;99.90;;;;;;5009176;28;20096;-88
2022/12/21 11:40:11;;;;;;;59.22;22.67;;;8.10;99.90;;;;;;4992127;28;20053;-86
2022/12/21 11:42:54;;;;;;;60.88;22.58;;;8.20;99.90;;;;;;5009375;28;20056;-87
2022/12/21 11:45:25;;;;;;;56.33;21.23;;;8.20;99.90;;;;;;5006921;28;20041;-87
2022/12/21 11:48:23;;;;;;;48.50;21.25;;;8.20;99.90;;;;;;5010648;28;20064;-88
2022/12/21 11:51:12;;;;;;;47.65;20.90;;;8.30;99.90;;;;;;5009752;28;20089;-86
2022/12/21 11:54:09;;;;;;;57.25;22.73;;;8.30;99.90;;;;;;5010191;28;20411;-88
2022/12/21 11:56:56;;;;;;;53.40;23.35;;;8.30;99.90;;;;;;5008219;28;20108;-88
2022/12/21 11:59:59;;;;;;;57.35;22.75;;;8.30;99.90;;;;;;5011587;28;20050;-87
2022/12/21 12:02:30;;;;;;;51.55;22.45;;;8.30;99.90;;;;;;5000950;28;20370;-90
2022/12/21 12:05:08;;;;;;;48.03;22.20;;;8.30;99.90;;;;;;4980774;28;20128;-88
2022/12/21 12:07:48;;;;;;;53.08;22.63;;;8.30;99.90;;;;;;5018301;28;20417;-88
2022/12/21 12:11:02;;;;;;;47.55;20.83;;;8.40;99.90;;;;;;4991493;28;20077;-89
2022/12/21 12:13:48;;;;;;;48.58;22.10;;;8.40;99.90;;;;;;4990637;28;20105;-91
2022/12/21 12:16:40;;;;;;;43.92;20.20;;;8.40;99.90;;;;;;5000936;28;20490;-90
2022/12/21 12:19:49;;;;;;;49.97;20.55;;;8.40;99.90;;;;;;5027619;28;20112;-91
2022/12/21 12:23:05;;;;;;;58.22;26.25;;;8.50;99.90;;;;;;5026245;28;20049;-92
2022/12/21 12:25:56;;;;;;;48.60;23.10;;;8.50;99.90;;;;;;4978239;28;20125;-86
2022/12/21 12:28:27;;;;;;;44.95;20.70;;;8.50;99.90;;;;;;5015159;28;20046;-87
2022/12/21 12:31:16;;;;;;;46.60;21.35;;;8.60;99.90;;;;;;5021378;28;20054;-88
2022/12/21 12:33:59;;;;;;;56.25;21.90;;;8.50;99.90;;;;;;5010245;28;20323;-87
2022/12/21 12:37:00;;;;;;;45.45;21.73;;;8.50;99.90;;;;;;4988159;28;20057;-90
2022/12/21 12:39:49;;;;;;;43.88;21.92;;;8.50;99.90;;;;;;4992213;28;20156;-86
2022/12/21 12:42:31;;;;;;;49.38;21.75;;;8.40;99.90;;;;;;5001448;28;20062;-88
2022/12/21 12:45:15;;;;;;;48.40;22.53;;;8.40;99.90;;;;;;5011997;28;20049;-88
2022/12/21 12:47:40;;;;;;;42.95;20.15;;;8.40;99.90;;;;;;5028107;28;20050;-87
2022/12/21 12:50:23;;;;;;;48.22;20.67;;;8.40;99.90;;;;;;5011343;28;20057;-87
2022/12/21 12:52:59;;;;;;;;;;;8.40;99.90;;;;;;4997520;28;20065;-90
2022/12/21 12:55:41;;;;;;;46.90;20.13;;;8.30;99.90;;;;;;4977792;28;19960;-90
2022/12/21 12:58:29;;;;;;;48.17;21.85;;;8.20;99.90;;;;;;5007852;28;20108;-88
2022/12/21 13:01:18;;;;;;;43.45;21.90;;;8.20;99.90;;;;;;4994790;28;20116;-92
2022/12/21 13:06:58;;;;;;;41.60;20.20;;;8.20;99.90;;;;;;5022284;28;20053;-92
2022/12/21 13:09:58;;;;;;;46.55;22.38;;;8.20;99.90;;;;;;5015204;28;20054;-92
2022/12/21 13:13:00;;;;;;;42.53;19.63;;;8.10;99.90;;;;;;5014937;28;20092;-92
2022/12/21 13:18:41;;;;;;;48.47;23.20;;;8.10;99.90;;;;;;5015448;28;20137;-89